Time;durP1;ratioP1;P1;durP2;ratioP2;P2;SDS_P1;SDS_P2;PMS_P1;PMS_P2;Temp;Humidity;BMP_temperature;BMP_pressure;BME280_temperature;BME280_humidity;BME280_pressure;Samples;Min_cycle;Max_cycle;Signal;HPM_P1;HPM_P2
2023/02/18 06:54:12;;;;;;;3.42;2.47;;;;;;;;;;10603191;27;20433;-82
2023/02/18 06:59:13;;;;;;;2.63;1.88;;;;;;;;;;10606305;28;20039;-83
2023/02/18 07:04:14;;;;;;;2.47;1.80;;;;;;;;;;10591861;28;20032;-83
2023/02/18 07:09:15;;;;;;;2.67;2.15;;;;;;;;;;10590145;28;20024;-83
2023/02/18 07:14:16;;;;;;;5.35;3.92;;;;;;;;;;10590053;28;20473;-83
2023/02/18 07:19:17;;;;;;;3.13;2.50;;;;;;;;;;10590213;28;20027;-83
2023/02/18 07:24:18;;;;;;;3.05;2.65;;;;;;;;;;10591123;28;20035;-83
2023/02/18 07:29:19;;;;;;;3.90;3.50;;;;;;;;;;10591055;28;20028;-83
2023/02/18 07:34:20;;;;;;;3.25;2.83;;;;;;;;;;10593730;28;20047;-84
2023/02/18 07:39:21;;;;;;;2.97;2.53;;;;;;;;;;10593548;28;20144;-83
2023/02/18 07:44:22;;;;;;;3.67;3.17;;;;;;;;;;10591052;28;20166;-83
2023/02/18 07:49:23;;;;;;;2.88;2.35;;;;;;;;;;10590763;28;20024;-83
2023/02/18 07:54:25;;;;;;;3.10;2.60;;;;;;;;;;10588179;28;20073;-83
2023/02/18 07:59:26;;;;;;;;;;;;;;;;;;10588479;28;20056;-83
2023/02/18 08:04:27;;;;;;;2.13;1.92;;;;;;;;;;10565051;28;20307;-83
2023/02/18 08:09:28;;;;;;;2.63;1.67;;;;;;;;;;10557526;28;20048;-82
2023/02/18 08:14:29;;;;;;;;;;;;;;;;;;10557265;28;20093;-81
2023/02/18 08:19:30;;;;;;;2.45;1.95;;;;;;;;;;10557798;28;19908;-81
2023/02/18 08:24:31;;;;;;;;;;;;;;;;;;10558453;28;20123;-82
2023/02/18 08:29:32;;;;;;;3.65;2.10;;;;;;;;;;10563126;28;20021;-82
2023/02/18 08:34:33;;;;;;;;;;;;;;;;;;10564886;28;20036;-82
2023/02/18 08:39:37;;;;;;;2.60;1.60;;;;;;;;;;10571531;28;19908;-82
2023/02/18 08:44:38;;;;;;;3.22;2.10;;;;;;;;;;10573783;28;20016;-81
2023/02/18 08:49:39;;;;;;;3.83;2.28;;;;;;;;;;10578373;28;20047;-81
2023/02/18 08:54:40;;;;;;;;;;;;;;;;;;10565823;28;20050;-80
2023/02/18 08:59:41;;;;;;;3.28;2.35;;;;;;;;;;10561133;28;19927;-81
2023/02/18 09:04:42;;;;;;;;;;;;;;;;;;10559587;28;20095;-80
2023/02/18 09:09:43;;;;;;;4.20;2.22;;;;;;;;;;10557192;28;20322;-80
2023/02/18 09:14:44;;;;;;;;;;;;;;;;;;10556911;28;20032;-81
2023/02/18 09:19:45;;;;;;;2.67;2.25;;;;;;;;;;10557464;28;19908;-81
2023/02/18 09:24:50;;;;;;;3.92;2.40;;;;;;;;;;10560518;28;20027;-81
2023/02/18 09:29:51;;;;;;;4.68;2.53;;;;;;;;;;10558474;28;20016;-81
2023/02/18 09:34:52;;;;;;;4.43;2.13;;;;;;;;;;10559318;28;20439;-82
2023/02/18 09:39:53;;;;;;;;;;;;;;;;;;10557061;28;20063;-83
2023/02/18 09:44:57;;;;;;;4.47;2.10;;;;;;;;;;10556758;28;19904;-81
2023/02/18 09:50:03;;;;;;;6.45;2.13;;;;;;;;;;10537788;28;20040;-80
2023/02/18 09:55:24;;;;;;;5.95;2.30;;;;;;;;;;10555032;28;20137;-82
2023/02/18 10:00:35;;;;;;;5.93;2.50;;;;;;;;;;10556916;28;20031;-81
2023/02/18 10:05:37;;;;;;;5.30;3.03;;;;;;;;;;10554808;28;20084;-81
2023/02/18 10:10:39;;;;;;;5.65;2.75;;;;;;;;;;10555054;28;20106;-81
2023/02/18 10:15:42;;;;;;;4.75;2.50;;;;;;;;;;10554154;28;20031;-82
2023/02/18 10:20:43;;;;;;;4.60;2.42;;;;;;;;;;10553544;28;20103;-82
2023/02/18 10:25:46;;;;;;;7.70;3.22;;;;;;;;;;10578482;28;20076;-81
2023/02/18 10:30:49;;;;;;;6.47;3.40;;;;;;;;;;10567295;28;20028;-84
2023/02/18 10:35:59;;;;;;;6.68;3.15;;;;;;;;;;10558547;28;20016;-81
2023/02/18 10:41:08;;;;;;;29.17;21.45;;;;;;;;;;10552748;28;20038;-83
2023/02/18 10:46:25;;;;;;;6.78;3.67;;;;;;;;;;10550032;28;20087;-82
2023/02/18 10:51:29;;;;;;;6.28;2.78;;;;;;;;;;10557013;28;20036;-82
2023/02/18 10:56:35;;;;;;;6.70;2.72;;;;;;;;;;10549768;28;20042;-82
2023/02/18 11:01:36;;;;;;;6.22;2.63;;;;;;;;;;10548654;28;20047;-82
2023/02/18 11:06:39;;;;;;;6.20;2.90;;;;;;;;;;10551841;28;20020;-80
2023/02/18 11:11:40;;;;;;;9.02;4.28;;;;;;;;;;10551178;28;20472;-82
2023/02/18 11:16:41;;;;;;;;;;;;;;;;;;10557199;28;20130;-79
2023/02/18 11:21:42;;;;;;;7.30;4.40;;;;;;;;;;10565127;28;20061;-82
2023/02/18 11:26:43;;;;;;;;;;;;;;;;;;10562372;28;20056;-81
2023/02/18 11:31:46;;;;;;;9.35;6.78;;;;;;;;;;10560857;28;19930;-82
2023/02/18 11:36:48;;;;;;;7.82;5.93;;;;;;;;;;10561056;28;20195;-82
2023/02/18 11:41:57;;;;;;;8.60;6.25;;;;;;;;;;10569451;28;20052;-82
2023/02/18 11:46:58;;;;;;;7.80;6.93;;;;;;;;;;10567844;28;20024;-80
2023/02/18 11:51:59;;;;;;;;;;;;;;;;;;10567942;28;20106;-81
2023/02/18 11:57:02;;;;;;;6.00;4.95;;;;;;;;;;10562846;28;20379;-82
2023/02/18 12:02:12;;;;;;;6.80;6.00;;;;;;;;;;10558808;28;20032;-81
2023/02/18 12:07:19;;;;;;;9.50;7.53;;;;;;;;;;10558914;28;20127;-82
2023/02/18 12:12:23;;;;;;;9.40;6.78;;;;;;;;;;10574680;22;20036;-81
2023/02/18 12:17:50;;;;;;;8.05;6.88;;;;;;;;;;10498601;28;20043;-81
2023/02/18 12:22:51;;;;;;;8.73;7.43;;;;;;;;;;10522618;28;20028;-79
2023/02/18 12:28:15;;;;;;;8.85;7.53;;;;;;;;;;10552597;28;20024;-79
2023/02/18 12:33:21;;;;;;;8.07;7.25;;;;;;;;;;10534329;28;20039;-80
2023/02/18 12:38:43;;;;;;;10.23;9.13;;;;;;;;;;10537975;28;20035;-81
2023/02/18 12:43:53;;;;;;;6.70;5.68;;;;;;;;;;10535411;28;20052;-80
2023/02/18 12:48:57;;;;;;;7.53;6.40;;;;;;;;;;10535179;28;20020;-81
2023/02/18 12:54:18;;;;;;;7.50;6.70;;;;;;;;;;10556039;28;20024;-82
2023/02/18 12:59:33;;;;;;;6.03;3.90;;;;;;;;;;10539094;28;20054;-82
2023/02/18 13:04:53;;;;;;;8.20;5.65;;;;;;;;;;10529192;28;20067;-83
2023/02/18 13:10:10;;;;;;;10.55;9.48;;;;;;;;;;10499656;28;20494;-82
2023/02/18 13:15:44;;;;;;;11.77;10.60;;;;;;;;;;10494343;28;20041;-82
2023/02/18 13:20:50;;;;;;;13.68;11.45;;;;;;;;;;10458308;28;20048;-82
2023/02/18 13:25:57;;;;;;;14.00;12.60;;;;;;;;;;10503475;28;20063;-82
2023/02/18 13:31:07;;;;;;;13.80;11.32;;;;;;;;;;10492626;28;20044;-83
2023/02/18 13:36:14;;;;;;;12.25;11.05;;;;;;;;;;10500601;28;20033;-82
2023/02/18 13:41:15;;;;;;;15.75;14.20;;;;;;;;;;10493228;28;20028;-81
2023/02/18 13:46:17;;;;;;;;;;;;;;;;;;10491329;28;20024;-82
2023/02/18 13:51:29;;;;;;;11.68;10.45;;;;;;;;;;10488584;28;19905;-82
2023/02/18 13:56:32;;;;;;;13.80;12.43;;;;;;;;;;10486122;28;20050;-82
2023/02/18 14:01:42;;;;;;;11.77;10.65;;;;;;;;;;10483944;28;20024;-82
2023/02/18 14:07:03;;;;;;;14.63;13.13;;;;;;;;;;10485924;28;20503;-82
2023/02/18 14:12:23;;;;;;;15.38;13.77;;;;;;;;;;10487072;28;20039;-82
2023/02/18 14:17:37;;;;;;;12.88;11.48;;;;;;;;;;10488207;28;20119;-84
2023/02/18 14:22:49;;;;;;;11.35;9.73;;;;;;;;;;10488316;28;20036;-83
2023/02/18 14:27:51;;;;;;;15.40;12.98;;;;;;;;;;10488552;28;20044;-83
2023/02/18 14:32:55;;;;;;;12.88;11.57;;;;;;;;;;10487433;28;20032;-83
2023/02/18 14:38:17;;;;;;;15.10;12.90;;;;;;;;;;10486066;28;20031;-83
2023/02/18 14:43:21;;;;;;;13.88;12.48;;;;;;;;;;10488693;28;20033;-84
2023/02/18 14:48:30;;;;;;;12.50;11.10;;;;;;;;;;10490733;28;20379;-84
2023/02/18 14:53:32;;;;;;;15.15;13.55;;;;;;;;;;10488884;28;20059;-83
2023/02/18 14:58:45;;;;;;;14.65;13.23;;;;;;;;;;10490455;28;20124;-84
2023/02/18 15:03:48;;;;;;;11.80;10.52;;;;;;;;;;10490101;28;20041;-85
2023/02/18 15:08:49;;;;;;;16.20;14.50;;;;;;;;;;10510061;28;20491;-82
2023/02/18 15:13:50;;;;;;;10.75;9.52;;;;;;;;;;10494933;28;20041;-84
2023/02/18 15:18:57;;;;;;;14.88;13.30;;;;;;;;;;10499988;28;20043;-82
2023/02/18 15:24:04;;;;;;;12.57;11.35;;;;;;;;;;10499143;28;20115;-83
2023/02/18 15:29:05;;;;;;;14.88;12.18;;;;;;;;;;10516929;28;20074;-83
2023/02/18 15:34:25;;;;;;;12.02;9.55;;;;;;;;;;10497994;28;20105;-81
2023/02/18 15:39:27;;;;;;;10.27;8.73;;;;;;;;;;10497663;28;20117;-82
2023/02/18 15:44:29;;;;;;;11.57;8.93;;;;;;;;;;10498193;28;20043;-82
2023/02/18 15:49:30;;;;;;;9.13;8.15;;;;;;;;;;10498915;28;20439;-82
2023/02/18 15:54:31;;;;;;;;;;;;;;;;;;10497892;28;20086;-82
2023/02/18 15:59:34;;;;;;;11.82;9.32;;;;;;;;;;10496912;28;19904;-82
2023/02/18 16:04:39;;;;;;;10.57;9.07;;;;;;;;;;10495264;28;20033;-82
2023/02/18 16:09:41;;;;;;;10.60;9.50;;;;;;;;;;10495685;28;20017;-82
2023/02/18 16:14:46;;;;;;;11.45;10.02;;;;;;;;;;10514958;28;20051;-82
2023/02/18 16:19:47;;;;;;;12.82;9.82;;;;;;;;;;10498439;28;20030;-82
2023/02/18 16:24:50;;;;;;;;;;;;;;;;;;10496311;28;20486;-82
2023/02/18 16:29:51;;;;;;;7.95;7.15;;;;;;;;;;10497297;28;19908;-83
2023/02/18 16:34:52;;;;;;;12.25;10.00;;;;;;;;;;10496275;28;20086;-83
2023/02/18 16:39:54;;;;;;;;;;;;;;;;;;10496241;28;20033;-83
2023/02/18 16:44:55;;;;;;;;;;;;;;;;;;10496286;28;20357;-83
2023/02/18 16:49:57;;;;;;;14.82;11.00;;;;;;;;;;10495434;28;19904;-83
2023/02/18 16:54:58;;;;;;;13.55;12.10;;;;;;;;;;10496293;28;20120;-83
2023/02/18 16:59:59;;;;;;;;;;;;;;;;;;10497111;28;20060;-83
2023/02/18 17:05:00;;;;;;;17.85;14.00;;;;;;;;;;10491795;28;20370;-83
2023/02/18 17:10:01;;;;;;;;;;;;;;;;;;10487111;28;20036;-83
2023/02/18 17:15:02;;;;;;;9.38;8.48;;;;;;;;;;10492256;28;19962;-83
2023/02/18 17:20:04;;;;;;;13.68;10.13;;;;;;;;;;10491700;28;20123;-83
2023/02/18 17:25:10;;;;;;;8.30;7.50;;;;;;;;;;10500583;28;20016;-83
2023/02/18 17:30:11;;;;;;;13.55;10.23;;;;;;;;;;10523480;28;20092;-83
2023/02/18 17:35:16;;;;;;;9.07;7.53;;;;;;;;;;10534252;28;20029;-83
2023/02/18 17:40:19;;;;;;;12.02;9.50;;;;;;;;;;10496740;28;20115;-83
2023/02/18 17:45:28;;;;;;;12.00;10.65;;;;;;;;;;10493880;28;20092;-83
2023/02/18 17:50:29;;;;;;;11.00;9.35;;;;;;;;;;10493271;28;20028;-83
2023/02/18 17:55:32;;;;;;;22.80;19.00;;;;;;;;;;10511013;28;20107;-83
2023/02/18 18:00:34;;;;;;;9.13;7.85;;;;;;;;;;10492583;28;20078;-83
2023/02/18 18:05:37;;;;;;;8.60;6.95;;;;;;;;;;10492319;28;20066;-83
2023/02/18 18:10:46;;;;;;;17.55;10.82;;;;;;;;;;10491390;28;20039;-83
2023/02/18 18:15:47;;;;;;;9.65;8.05;;;;;;;;;;10533279;22;20520;-82
2023/02/18 18:20:51;;;;;;;10.38;8.85;;;;;;;;;;10494673;28;20025;-82
2023/02/18 18:25:53;;;;;;;9.13;8.15;;;;;;;;;;10491329;28;20055;-83
2023/02/18 18:30:56;;;;;;;12.70;9.50;;;;;;;;;;10491800;28;20033;-83
2023/02/18 18:35:57;;;;;;;15.50;12.32;;;;;;;;;;10509969;28;20498;-82
2023/02/18 18:40:58;;;;;;;16.67;14.90;;;;;;;;;;10491157;28;20112;-82
2023/02/18 18:45:59;;;;;;;;;;;;;;;;;;10494035;28;20119;-83
2023/02/18 18:51:01;;;;;;;10.18;9.07;;;;;;;;;;10514733;28;19943;-82
2023/02/18 18:56:04;;;;;;;13.80;12.30;;;;;;;;;;10490762;28;20028;-82
2023/02/18 19:01:12;;;;;;;12.95;10.75;;;;;;;;;;10490516;28;20458;-81
2023/02/18 19:06:14;;;;;;;11.00;9.85;;;;;;;;;;10508506;28;20020;-82
2023/02/18 19:11:16;;;;;;;10.13;8.75;;;;;;;;;;10492278;28;20020;-82
2023/02/18 19:16:21;;;;;;;12.25;10.80;;;;;;;;;;10505648;28;20051;-82
2023/02/18 19:21:22;;;;;;;15.88;14.20;;;;;;;;;;10489251;28;20029;-82
2023/02/18 19:26:23;;;;;;;;;;;;;;;;;;10490189;28;20044;-82
2023/02/18 19:31:24;;;;;;;13.68;12.27;;;;;;;;;;10489820;28;19904;-82
2023/02/18 19:36:25;;;;;;;19.85;17.67;;;;;;;;;;10489930;28;20048;-82
2023/02/18 19:41:26;;;;;;;;;;;;;;;;;;10492124;28;20117;-82
2023/02/18 19:46:27;;;;;;;12.60;11.30;;;;;;;;;;10507722;28;19904;-82
2023/02/18 19:51:28;;;;;;;;;;;;;;;;;;10490107;28;20029;-82
2023/02/18 19:56:29;;;;;;;18.13;16.42;;;;;;;;;;10489940;28;19911;-82
2023/02/18 20:01:30;;;;;;;;;;;;;;;;;;10497881;28;20123;-82
2023/02/18 20:06:31;;;;;;;16.98;15.18;;;;;;;;;;10518931;28;19904;-82
2023/02/18 20:11:32;;;;;;;;;;;;;;;;;;10518496;28;20064;-82
2023/02/18 20:16:33;;;;;;;16.77;15.02;;;;;;;;;;10504926;28;19976;-82
